KWRI

Mc Guire Field (Joint Base Mc Guire Dix Lakehurst) Airport

Wrightstown, New Jersey, USA
TAF KWRI 201800Z 2018/2124 30020G25KT 9999 OVC010 QNH2930INS BECMG 2018/2019 31025G35KT 9999 SCT025 510007 QNH2947INS BECMG 2123/2124 30012G18KT 9999 SKC QNH3029INS TX05/2018Z TNM10/2111Z
Issued Valid From Valid To
Jan-20 @ 18:00 UTC
(4 hours ago)
Jan-20 @ 18:00 UTC
(4 hours ago)
Jan-22 @ 00:00 UTC
(-1 days ago)
Jan-20 @ 18:00 to Jan-22 @ 00:00
TAF KWRI 201800Z 2018/2124 30020G25KT 9999 OVC010 QNH2930INS
Wind Visibility Clouds Readings
300° at 20 knots
 Gusting to 25 knots
Greater than 6 miles
  • Overcast at 1,000' AGL
Altimeter 29.29" Hg
Pressure 991.92 hPa
Becoming Jan-20 @ 18:00 to Jan-21 @ 23:00
BECMG 2018/2019 31025G35KT 9999 SCT025 510007 QNH2947INS
Wind Visibility Clouds Readings Turbulence
310° at 25 knots
 Gusting to 35 knots
Greater than 6 miles
  • Scattered at 2,500' AGL
Altimeter 29.47" Hg
Pressure 997.92 hPa
Light turbulence expected at the surface extending to 7,000' AGL
Becoming Jan-21 @ 23:00 to Jan-22 @ 00:00
BECMG 2123/2124 30012G18KT 9999 SKC QNH3029INS TX05/2018Z TNM10/2111Z
Wind Visibility Clouds Readings
300° at 12 knots
 Gusting to 18 knots
Greater than 6 miles
  • Clear skies
Altimeter 30.3" Hg
Pressure 1025.92 hPa
TAF KWRI 201800Z 2018/2124 30020G25KT 9999 OVC010 QNH2930INS BECMG 2018/2019 31025G35KT 9999 SCT025 510007 QNH2947INS BECMG 2123/2124 30012G18KT 9999 SKC QNH3029INS TX05/2018Z TNM10/2111Z
Issued Jan-20 @ 18:00 UTC
(4 hours ago)
Valid From Jan-20 @ 18:00 UTC
(4 hours ago)
Valid To Jan-22 @ 00:00 UTC
(-1 days ago)
Jan-20 @ 18:00 - Jan-22 @ 00:00
Wind Visibility
300° at 20 knots
 Gusting to 25 knots
Greater than 6 miles
Clouds
  • Overcast at 1,000' AGL
Becoming Jan-20 @ 18:00 - Jan-21 @ 23:00
Wind Visibility
310° at 25 knots
 Gusting to 35 knots
Greater than 6 miles
Clouds
  • Scattered at 2,500' AGL
Becoming Jan-21 @ 23:00 - Jan-22 @ 00:00
Wind Visibility
300° at 12 knots
 Gusting to 18 knots
Greater than 6 miles
Clouds
  • Clear skies